AAL1391 KCLT-KDFW
Flight info
| Callsign | AAL1391 |
|---|---|
| Flight time | 2h 33m |
| Altitude | 32000 |
| Route | ESTRR5 IPTAY CHOPZ THRSR VLKNN Q30 IZAAC YUYUN BEREE3 |
| Aircraft | A321/M-SDE3FGHIRWY/LB1 |
Departure
| Time | 2026-05-05 02:47 |
|---|---|
| Airport | Charlotte Douglas International Airport (KCLT) |
Arrival
| Time | 2026-05-05 05:21 |
|---|---|
| Airport | Dallas Fort Worth International Airport (KDFW) |
| Time | Latitude | Longitude | Altitude | Speed | Heading |
|---|---|---|---|---|---|
| 2026-05-05 01:43 | 35.21749 | -80.94205 | 723 ft | 0 kts | 344° |
| 2026-05-05 02:34 | 35.21746 | -80.94203 | 732 ft | 3 kts | 344° |
| 2026-05-05 02:34 | 35.21721 | -80.94195 | 731 ft | 4 kts | 335° |
| 2026-05-05 02:35 | 35.21702 | -80.94177 | 731 ft | 4 kts | 286° |
| 2026-05-05 02:35 | 35.21704 | -80.94154 | 730 ft | 1 kts | 228° |
| 2026-05-05 02:35 | 35.21708 | -80.94149 | 731 ft | 0 kts | 228° |
| 2026-05-05 02:40 | 35.21701 | -80.94158 | 731 ft | 4 kts | 228° |
| 2026-05-05 02:40 | 35.21674 | -80.94201 | 732 ft | 9 kts | 244° |
| 2026-05-05 02:41 | 35.21674 | -80.94297 | 732 ft | 14 kts | 276° |
| 2026-05-05 02:41 | 35.21650 | -80.94421 | 732 ft | 17 kts | 241° |
| 2026-05-05 02:41 | 35.21626 | -80.94554 | 732 ft | 15 kts | 265° |
| 2026-05-05 02:41 | 35.21620 | -80.94670 | 732 ft | 12 kts | 266° |
| 2026-05-05 02:42 | 35.21616 | -80.94764 | 732 ft | 10 kts | 266° |
| 2026-05-05 02:42 | 35.21611 | -80.94836 | 732 ft | 7 kts | 266° |
| 2026-05-05 02:42 | 35.21608 | -80.94888 | 733 ft | 5 kts | 266° |
| 2026-05-05 02:42 | 35.21604 | -80.94941 | 733 ft | 7 kts | 264° |
| 2026-05-05 02:43 | 35.21613 | -80.95006 | 732 ft | 9 kts | 311° |
| 2026-05-05 02:43 | 35.21681 | -80.95025 | 733 ft | 12 kts | 357° |
| 2026-05-05 02:43 | 35.21774 | -80.95032 | 734 ft | 15 kts | 355° |
| 2026-05-05 02:43 | 35.21894 | -80.95042 | 734 ft | 20 kts | 359° |
| 2026-05-05 02:44 | 35.22030 | -80.95059 | 734 ft | 15 kts | 342° |
| 2026-05-05 02:44 | 35.22153 | -80.95067 | 734 ft | 20 kts | 358° |
| 2026-05-05 02:44 | 35.22303 | -80.95080 | 734 ft | 23 kts | 356° |
| 2026-05-05 02:44 | 35.22454 | -80.95093 | 733 ft | 22 kts | 355° |
| 2026-05-05 02:45 | 35.22597 | -80.95105 | 733 ft | 17 kts | 356° |
| 2026-05-05 02:45 | 35.22677 | -80.95112 | 733 ft | 11 kts | 355° |
| 2026-05-05 02:45 | 35.22730 | -80.95163 | 733 ft | 10 kts | 282° |
| 2026-05-05 02:45 | 35.22730 | -80.95241 | 737 ft | 8 kts | 264° |
| 2026-05-05 02:46 | 35.22725 | -80.95289 | 740 ft | 4 kts | 255° |
| 2026-05-05 02:46 | 35.22706 | -80.95309 | 739 ft | 4 kts | 201° |
| 2026-05-05 02:46 | 35.22669 | -80.95313 | 740 ft | 9 kts | 177° |
| 2026-05-05 02:46 | 35.22566 | -80.95304 | 741 ft | 29 kts | 179° |
| 2026-05-05 02:47 | 35.22119 | -80.95266 | 742 ft | 97 kts | 176° |
| 2026-05-05 02:47 | 35.21250 | -80.95192 | 737 ft | 151 kts | 176° |
| 2026-05-05 02:47 | 35.20097 | -80.95113 | 1042 ft | 168 kts | 177° |
| 2026-05-05 02:47 | 35.18934 | -80.94995 | 1748 ft | 168 kts | 178° |
| 2026-05-05 02:48 | 35.17769 | -80.94854 | 2461 ft | 169 kts | 180° |
| 2026-05-05 02:48 | 35.16586 | -80.94925 | 2834 ft | 181 kts | 201° |
| 2026-05-05 02:48 | 35.15568 | -80.95922 | 2981 ft | 205 kts | 240° |
| 2026-05-05 02:48 | 35.15081 | -80.97672 | 3257 ft | 230 kts | 251° |
| 2026-05-05 02:49 | 35.14650 | -80.99634 | 3691 ft | 245 kts | 252° |
| 2026-05-05 02:49 | 35.14217 | -81.01668 | 4375 ft | 250 kts | 252° |
| 2026-05-05 02:49 | 35.13779 | -81.03735 | 5104 ft | 253 kts | 253° |
| 2026-05-05 02:49 | 35.13331 | -81.05827 | 5782 ft | 257 kts | 253° |
| 2026-05-05 02:50 | 35.12871 | -81.07960 | 6424 ft | 262 kts | 254° |
| 2026-05-05 02:50 | 35.12400 | -81.10130 | 7051 ft | 266 kts | 254° |
| 2026-05-05 02:50 | 35.11928 | -81.12293 | 7723 ft | 268 kts | 254° |
| 2026-05-05 02:50 | 35.11441 | -81.14501 | 8409 ft | 271 kts | 254° |
| 2026-05-05 02:51 | 35.10950 | -81.16732 | 9102 ft | 273 kts | 254° |
| 2026-05-05 02:51 | 35.10452 | -81.18983 | 9777 ft | 276 kts | 254° |
| 2026-05-05 02:51 | 35.09946 | -81.21267 | 10256 ft | 286 kts | 254° |
| 2026-05-05 02:51 | 35.09407 | -81.23705 | 10382 ft | 308 kts | 254° |
| 2026-05-05 02:52 | 35.08832 | -81.26317 | 10507 ft | 329 kts | 254° |
| 2026-05-05 02:52 | 35.08225 | -81.29073 | 10819 ft | 340 kts | 254° |
| 2026-05-05 02:52 | 35.07611 | -81.31841 | 11390 ft | 344 kts | 254° |
| 2026-05-05 02:52 | 35.06980 | -81.34673 | 11974 ft | 348 kts | 254° |
| 2026-05-05 02:53 | 35.06342 | -81.37532 | 12567 ft | 351 kts | 255° |
| 2026-05-05 02:53 | 35.05695 | -81.40422 | 13160 ft | 355 kts | 255° |
| 2026-05-05 02:53 | 35.05044 | -81.43336 | 13728 ft | 358 kts | 255° |
| 2026-05-05 02:53 | 35.04382 | -81.46284 | 14295 ft | 361 kts | 253° |
| 2026-05-05 02:54 | 35.03497 | -81.49167 | 14847 ft | 364 kts | 248° |
| 2026-05-05 02:54 | 35.02539 | -81.52033 | 15401 ft | 366 kts | 248° |
| 2026-05-05 02:54 | 35.01571 | -81.54913 | 15988 ft | 368 kts | 248° |
| 2026-05-05 02:54 | 35.00611 | -81.57774 | 16557 ft | 370 kts | 248° |
| 2026-05-05 02:55 | 34.99637 | -81.60688 | 17128 ft | 373 kts | 249° |
| 2026-05-05 02:55 | 34.98667 | -81.63632 | 17695 ft | 375 kts | 249° |
| 2026-05-05 02:55 | 34.97701 | -81.66592 | 18268 ft | 377 kts | 249° |
| 2026-05-05 02:55 | 34.96734 | -81.69569 | 18796 ft | 378 kts | 249° |
| 2026-05-05 02:56 | 34.95760 | -81.72566 | 19268 ft | 381 kts | 249° |
| 2026-05-05 02:56 | 34.94776 | -81.75583 | 19748 ft | 383 kts | 249° |
| 2026-05-05 02:56 | 34.93784 | -81.78610 | 20215 ft | 386 kts | 249° |
| 2026-05-05 02:56 | 34.92627 | -81.81568 | 20671 ft | 390 kts | 240° |
| 2026-05-05 02:57 | 34.91121 | -81.84333 | 21112 ft | 393 kts | 237° |
| 2026-05-05 02:57 | 34.89597 | -81.87055 | 21546 ft | 395 kts | 237° |
| 2026-05-05 02:57 | 34.88039 | -81.89842 | 21972 ft | 398 kts | 237° |
| 2026-05-05 02:57 | 34.86481 | -81.92634 | 22397 ft | 400 kts | 237° |
| 2026-05-05 02:58 | 34.84913 | -81.95448 | 22810 ft | 403 kts | 237° |
| 2026-05-05 02:58 | 34.83333 | -81.98281 | 23210 ft | 405 kts | 237° |
| 2026-05-05 02:58 | 34.81741 | -82.01141 | 23625 ft | 407 kts | 237° |
| 2026-05-05 02:58 | 34.80164 | -82.03964 | 23958 ft | 410 kts | 237° |
| 2026-05-05 02:59 | 34.78555 | -82.06841 | 24304 ft | 411 kts | 237° |
| 2026-05-05 02:59 | 34.76939 | -82.09729 | 24656 ft | 413 kts | 237° |
| 2026-05-05 02:59 | 34.75316 | -82.12625 | 24990 ft | 415 kts | 237° |
| 2026-05-05 02:59 | 34.73685 | -82.15534 | 25314 ft | 417 kts | 237° |
| 2026-05-05 03:00 | 34.72042 | -82.18456 | 25677 ft | 418 kts | 237° |
| 2026-05-05 03:00 | 34.70398 | -82.21381 | 26023 ft | 420 kts | 237° |
| 2026-05-05 03:00 | 34.68747 | -82.24314 | 26355 ft | 421 kts | 237° |
| 2026-05-05 03:00 | 34.67111 | -82.27218 | 26684 ft | 423 kts | 237° |
| 2026-05-05 03:01 | 34.65444 | -82.30179 | 27012 ft | 424 kts | 237° |
| 2026-05-05 03:01 | 34.63773 | -82.33149 | 27307 ft | 426 kts | 237° |
| 2026-05-05 03:01 | 34.62096 | -82.36131 | 27622 ft | 428 kts | 237° |
| 2026-05-05 03:01 | 34.60411 | -82.39117 | 27923 ft | 429 kts | 237° |
| 2026-05-05 03:02 | 34.58718 | -82.42111 | 28223 ft | 431 kts | 237° |
| 2026-05-05 03:02 | 34.57013 | -82.45119 | 28513 ft | 433 kts | 237° |
| 2026-05-05 03:02 | 34.55298 | -82.48146 | 28818 ft | 435 kts | 238° |
| 2026-05-05 03:02 | 34.53602 | -82.51139 | 29111 ft | 437 kts | 238° |
| 2026-05-05 03:03 | 34.51877 | -82.54182 | 29403 ft | 438 kts | 238° |
| 2026-05-05 03:03 | 34.50143 | -82.57234 | 29668 ft | 439 kts | 237° |
| 2026-05-05 03:03 | 34.48407 | -82.60281 | 30073 ft | 438 kts | 237° |
| 2026-05-05 03:03 | 34.46677 | -82.63318 | 30430 ft | 437 kts | 238° |
| 2026-05-05 03:04 | 34.44954 | -82.66348 | 30741 ft | 435 kts | 238° |
| 2026-05-05 03:04 | 34.43239 | -82.69363 | 31070 ft | 434 kts | 238° |
| 2026-05-05 03:04 | 34.41544 | -82.72338 | 31391 ft | 433 kts | 238° |
| 2026-05-05 03:04 | 34.39835 | -82.75340 | 31724 ft | 432 kts | 238° |
| 2026-05-05 03:05 | 34.38129 | -82.78337 | 32050 ft | 431 kts | 238° |
| 2026-05-05 03:05 | 34.36423 | -82.81327 | 32345 ft | 431 kts | 238° |
| 2026-05-05 03:05 | 34.34714 | -82.84316 | 32643 ft | 430 kts | 238° |
| 2026-05-05 03:05 | 34.33023 | -82.87260 | 32944 ft | 430 kts | 238° |
| 2026-05-05 03:06 | 34.31309 | -82.90239 | 33253 ft | 429 kts | 238° |
| 2026-05-05 03:06 | 34.29608 | -82.93195 | 33561 ft | 428 kts | 238° |
| 2026-05-05 03:06 | 34.27909 | -82.96155 | 33861 ft | 427 kts | 238° |
| 2026-05-05 03:06 | 34.26213 | -82.99105 | 34120 ft | 426 kts | 239° |
| 2026-05-05 03:07 | 34.24539 | -83.02013 | 34341 ft | 426 kts | 239° |
| 2026-05-05 03:07 | 34.22840 | -83.04957 | 34554 ft | 426 kts | 239° |
| 2026-05-05 03:07 | 34.21143 | -83.07894 | 34779 ft | 426 kts | 239° |
| 2026-05-05 03:07 | 34.19448 | -83.10828 | 34993 ft | 426 kts | 239° |
| 2026-05-05 03:08 | 34.17751 | -83.13765 | 35209 ft | 425 kts | 239° |
| 2026-05-05 03:08 | 34.16056 | -83.16695 | 35411 ft | 425 kts | 240° |
| 2026-05-05 03:08 | 34.14358 | -83.19629 | 35589 ft | 426 kts | 240° |
| 2026-05-05 03:08 | 34.12658 | -83.22567 | 35790 ft | 426 kts | 240° |
| 2026-05-05 03:09 | 34.10978 | -83.25468 | 36002 ft | 426 kts | 240° |
| 2026-05-05 03:09 | 34.09276 | -83.28404 | 36212 ft | 426 kts | 240° |
| 2026-05-05 03:09 | 34.07573 | -83.31337 | 36427 ft | 426 kts | 240° |
| 2026-05-05 03:09 | 34.05875 | -83.34260 | 36620 ft | 425 kts | 241° |
| 2026-05-05 03:10 | 34.04176 | -83.37185 | 36806 ft | 425 kts | 241° |
| 2026-05-05 03:10 | 34.02500 | -83.40070 | 36965 ft | 425 kts | 241° |
| 2026-05-05 03:10 | 34.00800 | -83.42984 | 37159 ft | 424 kts | 242° |
| 2026-05-05 03:10 | 33.99105 | -83.45891 | 37335 ft | 424 kts | 242° |
| 2026-05-05 03:11 | 33.97406 | -83.48800 | 37511 ft | 423 kts | 242° |
| 2026-05-05 03:11 | 33.95705 | -83.51707 | 37658 ft | 423 kts | 242° |
| 2026-05-05 03:11 | 33.94032 | -83.54568 | 37791 ft | 423 kts | 243° |
| 2026-05-05 03:11 | 33.92336 | -83.57471 | 37932 ft | 423 kts | 243° |
| 2026-05-05 03:12 | 33.90643 | -83.60363 | 38075 ft | 422 kts | 243° |
| 2026-05-05 03:12 | 33.87265 | -83.66111 | 38098 ft | 418 kts | 243° |
| 2026-05-05 03:13 | 33.84660 | -83.72149 | 38099 ft | 402 kts | 257° |
| 2026-05-05 03:13 | 33.82768 | -83.78498 | 38091 ft | 402 kts | 257° |
| 2026-05-05 03:14 | 33.80854 | -83.84843 | 38081 ft | 403 kts | 257° |
| 2026-05-05 03:14 | 33.78942 | -83.91137 | 38054 ft | 402 kts | 258° |
| 2026-05-05 03:15 | 33.77022 | -83.97461 | 38087 ft | 402 kts | 259° |
| 2026-05-05 03:15 | 33.75106 | -84.03770 | 38098 ft | 401 kts | 258° |
| 2026-05-05 03:16 | 33.73195 | -84.10034 | 38093 ft | 401 kts | 258° |
| 2026-05-05 03:16 | 33.71269 | -84.16322 | 38091 ft | 400 kts | 258° |
| 2026-05-05 03:17 | 33.69345 | -84.22611 | 38086 ft | 400 kts | 258° |
| 2026-05-05 03:17 | 33.67431 | -84.28865 | 38092 ft | 400 kts | 258° |
| 2026-05-05 03:18 | 33.65503 | -84.35137 | 38088 ft | 400 kts | 259° |
| 2026-05-05 03:18 | 33.63615 | -84.41404 | 38092 ft | 394 kts | 264° |
| 2026-05-05 03:18 | 33.63099 | -84.44543 | 38093 ft | 383 kts | 273° |
| 2026-05-05 03:19 | 33.63132 | -84.50843 | 38094 ft | 376 kts | 279° |
| 2026-05-05 03:19 | 33.63294 | -84.57083 | 38090 ft | 376 kts | 278° |
| 2026-05-05 03:20 | 33.63447 | -84.63378 | 38082 ft | 376 kts | 278° |
| 2026-05-05 03:20 | 33.63599 | -84.69653 | 38061 ft | 376 kts | 278° |
| 2026-05-05 03:21 | 33.63751 | -84.75893 | 38066 ft | 375 kts | 278° |
| 2026-05-05 03:21 | 33.63896 | -84.82156 | 38081 ft | 375 kts | 278° |
| 2026-05-05 03:22 | 33.64034 | -84.88415 | 38096 ft | 375 kts | 278° |
| 2026-05-05 03:22 | 33.64175 | -84.94633 | 38110 ft | 375 kts | 278° |
| 2026-05-05 03:23 | 33.64317 | -85.00898 | 38123 ft | 375 kts | 278° |
| 2026-05-05 03:23 | 33.64460 | -85.07164 | 38110 ft | 374 kts | 278° |
| 2026-05-05 03:24 | 33.64583 | -85.13029 | 38127 ft | 374 kts | 278° |
| 2026-05-05 03:24 | 33.64706 | -85.19230 | 38130 ft | 373 kts | 278° |
| 2026-05-05 03:25 | 33.64825 | -85.25464 | 38134 ft | 373 kts | 278° |
| 2026-05-05 03:25 | 33.64945 | -85.31651 | 38053 ft | 373 kts | 278° |
| 2026-05-05 03:26 | 33.65070 | -85.37884 | 38054 ft | 373 kts | 278° |
| 2026-05-05 03:26 | 33.65188 | -85.44107 | 38035 ft | 372 kts | 279° |
| 2026-05-05 03:27 | 33.65302 | -85.50268 | 38059 ft | 371 kts | 279° |
| 2026-05-05 03:27 | 33.65413 | -85.56450 | 38069 ft | 369 kts | 279° |
| 2026-05-05 03:28 | 33.65514 | -85.62617 | 38070 ft | 368 kts | 279° |
| 2026-05-05 03:28 | 33.65618 | -85.68765 | 38074 ft | 368 kts | 279° |
| 2026-05-05 03:29 | 33.65718 | -85.74874 | 38076 ft | 368 kts | 279° |
| 2026-05-05 03:29 | 33.65816 | -85.81020 | 38078 ft | 368 kts | 279° |
| 2026-05-05 03:30 | 33.65911 | -85.87165 | 38076 ft | 367 kts | 279° |
| 2026-05-05 03:30 | 33.65997 | -85.93278 | 38077 ft | 367 kts | 279° |
| 2026-05-05 03:31 | 33.66079 | -85.99417 | 38047 ft | 367 kts | 279° |
| 2026-05-05 03:31 | 33.66164 | -86.05519 | 38046 ft | 367 kts | 279° |
| 2026-05-05 03:32 | 33.66235 | -86.10615 | 38049 ft | 367 kts | 279° |
| 2026-05-05 03:32 | 33.66317 | -86.16738 | 38065 ft | 366 kts | 279° |
| 2026-05-05 03:33 | 33.66390 | -86.22849 | 38068 ft | 365 kts | 279° |
| 2026-05-05 03:33 | 33.66460 | -86.28924 | 38057 ft | 363 kts | 279° |
| 2026-05-05 03:34 | 33.66531 | -86.34939 | 38046 ft | 361 kts | 279° |
| 2026-05-05 03:34 | 33.66590 | -86.40977 | 38050 ft | 361 kts | 279° |
| 2026-05-05 03:35 | 33.66650 | -86.46990 | 38055 ft | 360 kts | 279° |
| 2026-05-05 03:35 | 33.66712 | -86.52971 | 38060 ft | 359 kts | 280° |
| 2026-05-05 03:36 | 33.66775 | -86.58973 | 38059 ft | 358 kts | 281° |
| 2026-05-05 03:36 | 33.66822 | -86.64932 | 38078 ft | 355 kts | 281° |
| 2026-05-05 03:37 | 33.66871 | -86.70844 | 38082 ft | 353 kts | 281° |
| 2026-05-05 03:37 | 33.66919 | -86.76680 | 38081 ft | 351 kts | 281° |
| 2026-05-05 03:38 | 33.66962 | -86.82547 | 38075 ft | 350 kts | 281° |
| 2026-05-05 03:38 | 33.67005 | -86.88401 | 38067 ft | 350 kts | 281° |
| 2026-05-05 03:39 | 33.66554 | -86.94282 | 38067 ft | 359 kts | 275° |
| 2026-05-05 03:39 | 33.65912 | -87.00223 | 38022 ft | 358 kts | 275° |
| 2026-05-05 03:40 | 33.65273 | -87.06119 | 38007 ft | 357 kts | 275° |
| 2026-05-05 03:40 | 33.64626 | -87.12049 | 37960 ft | 358 kts | 276° |
| 2026-05-05 03:41 | 33.63972 | -87.17992 | 37951 ft | 359 kts | 276° |
| 2026-05-05 03:41 | 33.63322 | -87.23905 | 37957 ft | 359 kts | 276° |
| 2026-05-05 03:42 | 33.62659 | -87.29853 | 37966 ft | 359 kts | 275° |
| 2026-05-05 03:42 | 33.61998 | -87.35806 | 37930 ft | 360 kts | 275° |
| 2026-05-05 03:43 | 33.61334 | -87.41752 | 37932 ft | 362 kts | 275° |
| 2026-05-05 03:43 | 33.60654 | -87.47762 | 37939 ft | 364 kts | 275° |
| 2026-05-05 03:44 | 33.59973 | -87.53801 | 37939 ft | 365 kts | 275° |
| 2026-05-05 03:44 | 33.59297 | -87.59804 | 37956 ft | 366 kts | 275° |
| 2026-05-05 03:45 | 33.58610 | -87.65864 | 37958 ft | 366 kts | 275° |
| 2026-05-05 03:45 | 33.57919 | -87.71929 | 37928 ft | 366 kts | 274° |
| 2026-05-05 03:46 | 33.57221 | -87.77982 | 37944 ft | 366 kts | 273° |
| 2026-05-05 03:46 | 33.56522 | -87.84002 | 37957 ft | 366 kts | 273° |
| 2026-05-05 03:47 | 33.55822 | -87.90072 | 37962 ft | 366 kts | 273° |
| 2026-05-05 03:47 | 33.55123 | -87.96087 | 37958 ft | 366 kts | 273° |
| 2026-05-05 03:48 | 33.54414 | -88.02137 | 37961 ft | 366 kts | 273° |
| 2026-05-05 03:48 | 33.53708 | -88.08188 | 37961 ft | 366 kts | 273° |
| 2026-05-05 03:49 | 33.53002 | -88.14194 | 37958 ft | 365 kts | 272° |
| 2026-05-05 03:49 | 33.52291 | -88.20222 | 37966 ft | 365 kts | 272° |
| 2026-05-05 03:50 | 33.51572 | -88.26240 | 37968 ft | 364 kts | 272° |
| 2026-05-05 03:50 | 33.50852 | -88.32227 | 37972 ft | 364 kts | 272° |
| 2026-05-05 03:51 | 33.50131 | -88.38235 | 37975 ft | 364 kts | 272° |
| 2026-05-05 03:51 | 33.49408 | -88.44247 | 38022 ft | 364 kts | 272° |
| 2026-05-05 03:52 | 33.48689 | -88.50214 | 38009 ft | 363 kts | 272° |
| 2026-05-05 03:52 | 33.48533 | -88.56136 | 38024 ft | 354 kts | 278° |
| 2026-05-05 03:53 | 33.48500 | -88.62039 | 38029 ft | 354 kts | 278° |
| 2026-05-05 03:53 | 33.48451 | -88.67899 | 38030 ft | 353 kts | 278° |
| 2026-05-05 03:54 | 33.48412 | -88.73783 | 38002 ft | 353 kts | 278° |
| 2026-05-05 03:54 | 33.48375 | -88.79672 | 38003 ft | 353 kts | 278° |
| 2026-05-05 03:55 | 33.48335 | -88.85521 | 37970 ft | 353 kts | 278° |
| 2026-05-05 03:55 | 33.48287 | -88.91393 | 37990 ft | 352 kts | 277° |
| 2026-05-05 03:56 | 33.48235 | -88.97270 | 37995 ft | 351 kts | 277° |
| 2026-05-05 03:56 | 33.48180 | -89.03118 | 37997 ft | 351 kts | 277° |
| 2026-05-05 03:57 | 33.48124 | -89.08928 | 37995 ft | 351 kts | 277° |
| 2026-05-05 03:57 | 33.48063 | -89.14786 | 37994 ft | 351 kts | 277° |
| 2026-05-05 03:58 | 33.48001 | -89.20627 | 37988 ft | 350 kts | 277° |
| 2026-05-05 03:58 | 33.47940 | -89.26465 | 37971 ft | 350 kts | 277° |
| 2026-05-05 03:59 | 33.47878 | -89.32256 | 37979 ft | 349 kts | 277° |
| 2026-05-05 03:59 | 33.47801 | -89.38085 | 37980 ft | 349 kts | 277° |
| 2026-05-05 04:00 | 33.47725 | -89.43900 | 37977 ft | 349 kts | 277° |
| 2026-05-05 04:00 | 33.47651 | -89.49681 | 37973 ft | 348 kts | 277° |
| 2026-05-05 04:01 | 33.47577 | -89.55507 | 37972 ft | 348 kts | 277° |
| 2026-05-05 04:01 | 33.47496 | -89.61289 | 37967 ft | 349 kts | 277° |
| 2026-05-05 04:02 | 33.47414 | -89.67077 | 37968 ft | 349 kts | 277° |
| 2026-05-05 04:02 | 33.47330 | -89.72892 | 37968 ft | 349 kts | 277° |
| 2026-05-05 04:03 | 33.47242 | -89.78717 | 37962 ft | 349 kts | 277° |
| 2026-05-05 04:03 | 33.47153 | -89.84493 | 37961 ft | 349 kts | 277° |
| 2026-05-05 04:04 | 33.47062 | -89.90300 | 37963 ft | 349 kts | 277° |
| 2026-05-05 04:04 | 33.46970 | -89.96118 | 37963 ft | 349 kts | 277° |
| 2026-05-05 04:05 | 33.46866 | -90.01927 | 37969 ft | 349 kts | 277° |
| 2026-05-05 04:05 | 33.46763 | -90.07700 | 37983 ft | 348 kts | 277° |
| 2026-05-05 04:06 | 33.46659 | -90.13507 | 37989 ft | 348 kts | 276° |
| 2026-05-05 04:06 | 33.46546 | -90.19321 | 37991 ft | 348 kts | 276° |
| 2026-05-05 04:07 | 33.46432 | -90.25083 | 37988 ft | 348 kts | 276° |
| 2026-05-05 04:07 | 33.46104 | -90.28002 | 37984 ft | 360 kts | 265° |
| 2026-05-05 04:07 | 33.45235 | -90.30875 | 37982 ft | 372 kts | 258° |
| 2026-05-05 04:08 | 33.43129 | -90.36545 | 37979 ft | 372 kts | 258° |
| 2026-05-05 04:08 | 33.41029 | -90.42187 | 37960 ft | 372 kts | 258° |
| 2026-05-05 04:09 | 33.38929 | -90.47857 | 37962 ft | 372 kts | 258° |
| 2026-05-05 04:09 | 33.36825 | -90.53520 | 37968 ft | 372 kts | 258° |
| 2026-05-05 04:10 | 33.34730 | -90.59140 | 37974 ft | 371 kts | 258° |
| 2026-05-05 04:10 | 33.32624 | -90.64791 | 37971 ft | 371 kts | 258° |
| 2026-05-05 04:11 | 33.30524 | -90.70404 | 37971 ft | 371 kts | 258° |
| 2026-05-05 04:11 | 33.28407 | -90.76050 | 37969 ft | 371 kts | 258° |
| 2026-05-05 04:12 | 33.26295 | -90.81682 | 37974 ft | 371 kts | 258° |
| 2026-05-05 04:12 | 33.24193 | -90.87266 | 37975 ft | 370 kts | 258° |
| 2026-05-05 04:13 | 33.22089 | -90.92881 | 37977 ft | 369 kts | 258° |
| 2026-05-05 04:13 | 33.19993 | -90.98455 | 37975 ft | 369 kts | 258° |
| 2026-05-05 04:14 | 33.17881 | -91.04044 | 37973 ft | 369 kts | 258° |
| 2026-05-05 04:14 | 33.15764 | -91.09631 | 37972 ft | 369 kts | 258° |
| 2026-05-05 04:15 | 33.13657 | -91.15193 | 37926 ft | 369 kts | 258° |
| 2026-05-05 04:15 | 33.11537 | -91.20780 | 37953 ft | 369 kts | 258° |
| 2026-05-05 04:16 | 33.09423 | -91.26357 | 37964 ft | 369 kts | 258° |
| 2026-05-05 04:16 | 33.07299 | -91.31935 | 37972 ft | 369 kts | 258° |
| 2026-05-05 04:17 | 33.05186 | -91.37484 | 37963 ft | 369 kts | 258° |
| 2026-05-05 04:17 | 33.03054 | -91.43064 | 37968 ft | 369 kts | 258° |
| 2026-05-05 04:18 | 33.00932 | -91.48613 | 37964 ft | 369 kts | 258° |
| 2026-05-05 04:18 | 32.98796 | -91.54182 | 37938 ft | 369 kts | 258° |
| 2026-05-05 04:19 | 32.96671 | -91.59716 | 37953 ft | 368 kts | 257° |
| 2026-05-05 04:19 | 32.94542 | -91.65267 | 37960 ft | 368 kts | 257° |
| 2026-05-05 04:20 | 32.92405 | -91.70814 | 37956 ft | 368 kts | 257° |
| 2026-05-05 04:20 | 32.90264 | -91.76349 | 37957 ft | 368 kts | 257° |
| 2026-05-05 04:21 | 32.88140 | -91.81844 | 37953 ft | 367 kts | 257° |
| 2026-05-05 04:21 | 32.86009 | -91.87368 | 37924 ft | 367 kts | 257° |
| 2026-05-05 04:22 | 32.83871 | -91.92894 | 37948 ft | 367 kts | 257° |
| 2026-05-05 04:22 | 32.81744 | -91.98364 | 37964 ft | 366 kts | 257° |
| 2026-05-05 04:23 | 32.79604 | -92.03863 | 37967 ft | 366 kts | 257° |
| 2026-05-05 04:23 | 32.77826 | -92.08444 | 37965 ft | 365 kts | 257° |
| 2026-05-05 04:24 | 32.75351 | -92.14820 | 37958 ft | 365 kts | 257° |
| 2026-05-05 04:25 | 32.72490 | -92.22122 | 37956 ft | 366 kts | 257° |
| 2026-05-05 04:25 | 32.70340 | -92.27607 | 37958 ft | 366 kts | 257° |
| 2026-05-05 04:26 | 32.68204 | -92.33062 | 37929 ft | 366 kts | 257° |
| 2026-05-05 04:26 | 32.66049 | -92.38540 | 37940 ft | 366 kts | 257° |
| 2026-05-05 04:27 | 32.63900 | -92.43986 | 37949 ft | 366 kts | 257° |
| 2026-05-05 04:27 | 32.61744 | -92.49467 | 37955 ft | 366 kts | 257° |
| 2026-05-05 04:28 | 32.59586 | -92.54945 | 37960 ft | 366 kts | 257° |
| 2026-05-05 04:28 | 32.57426 | -92.60420 | 37929 ft | 367 kts | 257° |
| 2026-05-05 04:29 | 32.55271 | -92.65867 | 37940 ft | 367 kts | 257° |
| 2026-05-05 04:29 | 32.53090 | -92.71360 | 37943 ft | 367 kts | 256° |
| 2026-05-05 04:30 | 32.50908 | -92.76849 | 37949 ft | 367 kts | 256° |
| 2026-05-05 04:30 | 32.48742 | -92.82298 | 37941 ft | 368 kts | 256° |
| 2026-05-05 04:31 | 32.46554 | -92.87789 | 37954 ft | 368 kts | 256° |
| 2026-05-05 04:31 | 32.44373 | -92.93241 | 37940 ft | 369 kts | 256° |
| 2026-05-05 04:32 | 32.42138 | -92.98728 | 37931 ft | 371 kts | 256° |
| 2026-05-05 04:32 | 32.39901 | -93.04245 | 37931 ft | 372 kts | 256° |
| 2026-05-05 04:33 | 32.37680 | -93.09781 | 37915 ft | 372 kts | 256° |
| 2026-05-05 04:33 | 32.35483 | -93.15291 | 37936 ft | 372 kts | 256° |
| 2026-05-05 04:34 | 32.33281 | -93.20833 | 37939 ft | 372 kts | 256° |
| 2026-05-05 04:34 | 32.31080 | -93.26381 | 37941 ft | 372 kts | 256° |
| 2026-05-05 04:35 | 32.28899 | -93.31880 | 37925 ft | 371 kts | 256° |
| 2026-05-05 04:35 | 32.26703 | -93.37417 | 37928 ft | 372 kts | 256° |
| 2026-05-05 04:36 | 32.24508 | -93.42961 | 37935 ft | 372 kts | 256° |
| 2026-05-05 04:36 | 32.22335 | -93.48458 | 37936 ft | 371 kts | 256° |
| 2026-05-05 04:37 | 32.20236 | -93.53780 | 37917 ft | 373 kts | 256° |
| 2026-05-05 04:37 | 32.18072 | -93.59276 | 37911 ft | 371 kts | 256° |
| 2026-05-05 04:38 | 32.15943 | -93.64804 | 37909 ft | 363 kts | 263° |
| 2026-05-05 04:38 | 32.15545 | -93.67640 | 37912 ft | 341 kts | 278° |
| 2026-05-05 04:38 | 32.15759 | -93.70396 | 37913 ft | 336 kts | 281° |
| 2026-05-05 04:39 | 32.16291 | -93.75874 | 37915 ft | 335 kts | 281° |
| 2026-05-05 04:39 | 32.16808 | -93.81321 | 37892 ft | 336 kts | 281° |
| 2026-05-05 04:40 | 32.17323 | -93.86811 | 37895 ft | 336 kts | 281° |
| 2026-05-05 04:40 | 32.17843 | -93.92318 | 37905 ft | 337 kts | 281° |
| 2026-05-05 04:41 | 32.18360 | -93.97801 | 37911 ft | 338 kts | 281° |
| 2026-05-05 04:41 | 32.18876 | -94.03327 | 37918 ft | 338 kts | 281° |
| 2026-05-05 04:42 | 32.19391 | -94.08858 | 37925 ft | 338 kts | 281° |
| 2026-05-05 04:42 | 32.19895 | -94.14355 | 37919 ft | 338 kts | 281° |
| 2026-05-05 04:43 | 32.20401 | -94.19882 | 37916 ft | 339 kts | 280° |
| 2026-05-05 04:43 | 32.20905 | -94.25417 | 37919 ft | 339 kts | 280° |
| 2026-05-05 04:44 | 32.21404 | -94.30918 | 37916 ft | 339 kts | 280° |
| 2026-05-05 04:44 | 32.21905 | -94.36479 | 37918 ft | 339 kts | 280° |
| 2026-05-05 04:45 | 32.22401 | -94.41987 | 37910 ft | 339 kts | 280° |
| 2026-05-05 04:45 | 32.22900 | -94.47545 | 37900 ft | 339 kts | 280° |
| 2026-05-05 04:46 | 32.23393 | -94.53062 | 37903 ft | 339 kts | 280° |
| 2026-05-05 04:46 | 32.23883 | -94.58624 | 37861 ft | 340 kts | 279° |
| 2026-05-05 04:47 | 32.24374 | -94.64186 | 37863 ft | 341 kts | 280° |
| 2026-05-05 04:47 | 32.24860 | -94.69738 | 37892 ft | 342 kts | 279° |
| 2026-05-05 04:48 | 32.25355 | -94.75325 | 37904 ft | 342 kts | 279° |
| 2026-05-05 04:48 | 32.25845 | -94.80920 | 37916 ft | 341 kts | 279° |
| 2026-05-05 04:49 | 32.26325 | -94.86458 | 37909 ft | 338 kts | 279° |
| 2026-05-05 04:49 | 32.26802 | -94.91990 | 37909 ft | 338 kts | 279° |
| 2026-05-05 04:50 | 32.27271 | -94.97496 | 37871 ft | 339 kts | 279° |
| 2026-05-05 04:50 | 32.27274 | -95.03104 | 37877 ft | 346 kts | 269° |
| 2026-05-05 04:51 | 32.26662 | -95.08732 | 37888 ft | 347 kts | 269° |
| 2026-05-05 04:51 | 32.26053 | -95.14409 | 37888 ft | 348 kts | 269° |
| 2026-05-05 04:52 | 32.25447 | -95.20099 | 37890 ft | 348 kts | 269° |
| 2026-05-05 04:52 | 32.25271 | -95.25717 | 37892 ft | 343 kts | 276° |
| 2026-05-05 04:53 | 32.25428 | -95.31369 | 37886 ft | 343 kts | 276° |
| 2026-05-05 04:53 | 32.25574 | -95.37023 | 37866 ft | 344 kts | 276° |
| 2026-05-05 04:54 | 32.25719 | -95.42643 | 37880 ft | 345 kts | 276° |
| 2026-05-05 04:54 | 32.25867 | -95.48319 | 37878 ft | 345 kts | 276° |
| 2026-05-05 04:55 | 32.26009 | -95.53997 | 37880 ft | 345 kts | 276° |
| 2026-05-05 04:55 | 32.26147 | -95.59643 | 37873 ft | 346 kts | 276° |
| 2026-05-05 04:56 | 32.26280 | -95.65332 | 36787 ft | 348 kts | 276° |
| 2026-05-05 04:56 | 32.26350 | -95.68240 | 35870 ft | 355 kts | 276° |
| 2026-05-05 04:56 | 32.26415 | -95.71116 | 35745 ft | 344 kts | 276° |
| 2026-05-05 04:56 | 32.26476 | -95.73893 | 35283 ft | 342 kts | 275° |
| 2026-05-05 04:57 | 32.26538 | -95.76712 | 34669 ft | 344 kts | 276° |
| 2026-05-05 04:57 | 32.26605 | -95.79572 | 33910 ft | 350 kts | 276° |
| 2026-05-05 04:57 | 32.26674 | -95.82474 | 33026 ft | 357 kts | 276° |
| 2026-05-05 04:57 | 32.26741 | -95.85398 | 32192 ft | 362 kts | 275° |
| 2026-05-05 04:58 | 32.26806 | -95.88401 | 31340 ft | 368 kts | 275° |
| 2026-05-05 04:58 | 32.26871 | -95.91458 | 30454 ft | 374 kts | 275° |
| 2026-05-05 04:58 | 32.26937 | -95.94522 | 29513 ft | 381 kts | 275° |
| 2026-05-05 04:58 | 32.27002 | -95.97659 | 28843 ft | 380 kts | 275° |
| 2026-05-05 04:59 | 32.27064 | -96.00770 | 28177 ft | 378 kts | 275° |
| 2026-05-05 04:59 | 32.27128 | -96.03871 | 27507 ft | 376 kts | 275° |
| 2026-05-05 04:59 | 32.27193 | -96.06959 | 26843 ft | 375 kts | 274° |
| 2026-05-05 04:59 | 32.27258 | -96.10045 | 26171 ft | 375 kts | 274° |
| 2026-05-05 05:00 | 32.27322 | -96.13122 | 25528 ft | 374 kts | 274° |
| 2026-05-05 05:00 | 32.27386 | -96.16187 | 25008 ft | 370 kts | 274° |
| 2026-05-05 05:00 | 32.27448 | -96.19200 | 24304 ft | 372 kts | 274° |
| 2026-05-05 05:00 | 32.27509 | -96.22229 | 23869 ft | 366 kts | 273° |
| 2026-05-05 05:01 | 32.27569 | -96.25246 | 23308 ft | 365 kts | 273° |
| 2026-05-05 05:01 | 32.27646 | -96.28215 | 23050 ft | 357 kts | 276° |
| 2026-05-05 05:01 | 32.28127 | -96.31095 | 22902 ft | 357 kts | 288° |
| 2026-05-05 05:01 | 32.29166 | -96.33768 | 22574 ft | 360 kts | 299° |
| 2026-05-05 05:02 | 32.30721 | -96.36069 | 21939 ft | 365 kts | 312° |
| 2026-05-05 05:02 | 32.32562 | -96.38123 | 21324 ft | 364 kts | 312° |
| 2026-05-05 05:02 | 32.34381 | -96.40182 | 20927 ft | 358 kts | 311° |
| 2026-05-05 05:02 | 32.36168 | -96.42227 | 20424 ft | 356 kts | 311° |
| 2026-05-05 05:03 | 32.37938 | -96.44271 | 19946 ft | 353 kts | 311° |
| 2026-05-05 05:03 | 32.39694 | -96.46305 | 19463 ft | 351 kts | 311° |
| 2026-05-05 05:03 | 32.41410 | -96.48289 | 19040 ft | 347 kts | 311° |
| 2026-05-05 05:03 | 32.43132 | -96.50274 | 18606 ft | 343 kts | 311° |
| 2026-05-05 05:04 | 32.44837 | -96.52237 | 18152 ft | 340 kts | 311° |
| 2026-05-05 05:04 | 32.46490 | -96.54136 | 17559 ft | 323 kts | 311° |
| 2026-05-05 05:04 | 32.48083 | -96.55965 | 16757 ft | 313 kts | 311° |
| 2026-05-05 05:04 | 32.49641 | -96.57760 | 16495 ft | 313 kts | 311° |
| 2026-05-05 05:05 | 32.51202 | -96.59557 | 16246 ft | 312 kts | 311° |
| 2026-05-05 05:05 | 32.52760 | -96.61346 | 15975 ft | 312 kts | 311° |
| 2026-05-05 05:05 | 32.54317 | -96.63130 | 15608 ft | 311 kts | 311° |
| 2026-05-05 05:05 | 32.55852 | -96.64888 | 15220 ft | 309 kts | 311° |
| 2026-05-05 05:06 | 32.57420 | -96.66683 | 14747 ft | 310 kts | 311° |
| 2026-05-05 05:06 | 32.58977 | -96.68451 | 14135 ft | 315 kts | 312° |
| 2026-05-05 05:06 | 32.60543 | -96.70208 | 13586 ft | 303 kts | 312° |
| 2026-05-05 05:06 | 32.62022 | -96.71856 | 13287 ft | 281 kts | 312° |
| 2026-05-05 05:07 | 32.63425 | -96.73419 | 12767 ft | 275 kts | 312° |
| 2026-05-05 05:07 | 32.64803 | -96.74971 | 12512 ft | 270 kts | 311° |
| 2026-05-05 05:07 | 32.66140 | -96.76484 | 12280 ft | 268 kts | 311° |
| 2026-05-05 05:07 | 32.67482 | -96.78010 | 12033 ft | 267 kts | 311° |
| 2026-05-05 05:08 | 32.68819 | -96.79533 | 11935 ft | 264 kts | 311° |
| 2026-05-05 05:08 | 32.70154 | -96.81054 | 12017 ft | 268 kts | 311° |
| 2026-05-05 05:08 | 32.71502 | -96.82591 | 12029 ft | 269 kts | 311° |
| 2026-05-05 05:08 | 32.72853 | -96.84131 | 12025 ft | 269 kts | 311° |
| 2026-05-05 05:09 | 32.74204 | -96.85670 | 12025 ft | 269 kts | 311° |
| 2026-05-05 05:09 | 32.75559 | -96.87210 | 12024 ft | 268 kts | 311° |
| 2026-05-05 05:09 | 32.76879 | -96.88702 | 12019 ft | 254 kts | 311° |
| 2026-05-05 05:09 | 32.78110 | -96.90083 | 12019 ft | 240 kts | 313° |
| 2026-05-05 05:10 | 32.79498 | -96.91117 | 12016 ft | 233 kts | 333° |
| 2026-05-05 05:10 | 32.81093 | -96.91505 | 11826 ft | 239 kts | 353° |
| 2026-05-05 05:10 | 32.82774 | -96.91294 | 11659 ft | 241 kts | 357° |
| 2026-05-05 05:10 | 32.84430 | -96.91186 | 11401 ft | 236 kts | 353° |
| 2026-05-05 05:11 | 32.86065 | -96.91148 | 11154 ft | 234 kts | 353° |
| 2026-05-05 05:11 | 32.87623 | -96.91095 | 11119 ft | 220 kts | 353° |
| 2026-05-05 05:11 | 32.89205 | -96.91048 | 10879 ft | 234 kts | 353° |
| 2026-05-05 05:11 | 32.90828 | -96.91004 | 10545 ft | 237 kts | 353° |
| 2026-05-05 05:12 | 32.92479 | -96.90962 | 10164 ft | 237 kts | 353° |
| 2026-05-05 05:12 | 32.94129 | -96.90923 | 9743 ft | 236 kts | 354° |
| 2026-05-05 05:12 | 32.95768 | -96.90888 | 9230 ft | 235 kts | 353° |
| 2026-05-05 05:12 | 32.97400 | -96.90857 | 8745 ft | 235 kts | 353° |
| 2026-05-05 05:13 | 32.99033 | -96.90827 | 8243 ft | 235 kts | 353° |
| 2026-05-05 05:13 | 33.00670 | -96.90794 | 7753 ft | 235 kts | 354° |
| 2026-05-05 05:13 | 33.02304 | -96.90769 | 7269 ft | 234 kts | 353° |
| 2026-05-05 05:13 | 33.03912 | -96.90749 | 6801 ft | 233 kts | 353° |
| 2026-05-05 05:14 | 33.05531 | -96.90725 | 6307 ft | 231 kts | 353° |
| 2026-05-05 05:14 | 33.07093 | -96.90948 | 5817 ft | 220 kts | 330° |
| 2026-05-05 05:14 | 33.08222 | -96.92028 | 5340 ft | 203 kts | 295° |
| 2026-05-05 05:14 | 33.08540 | -96.93039 | 5019 ft | 194 kts | 272° |
| 2026-05-05 05:15 | 33.08557 | -96.94633 | 4546 ft | 191 kts | 258° |
| 2026-05-05 05:15 | 33.08215 | -96.96666 | 3893 ft | 185 kts | 246° |
| 2026-05-05 05:15 | 33.07561 | -96.97927 | 3411 ft | 177 kts | 225° |
| 2026-05-05 05:15 | 33.07014 | -96.98648 | 3121 ft | 169 kts | 223° |
| 2026-05-05 05:16 | 33.06293 | -96.99612 | 2968 ft | 146 kts | 224° |
| 2026-05-05 05:16 | 33.05663 | -97.00454 | 2958 ft | 129 kts | 223° |
| 2026-05-05 05:16 | 33.05079 | -97.01229 | 2989 ft | 122 kts | 222° |
| 2026-05-05 05:16 | 33.04502 | -97.01959 | 2999 ft | 119 kts | 216° |
| 2026-05-05 05:17 | 33.03772 | -97.02415 | 2958 ft | 122 kts | 194° |
| 2026-05-05 05:17 | 33.02919 | -97.02420 | 2769 ft | 120 kts | 190° |
| 2026-05-05 05:17 | 33.02092 | -97.02478 | 2609 ft | 119 kts | 188° |
| 2026-05-05 05:17 | 33.01278 | -97.02510 | 2452 ft | 118 kts | 188° |
| 2026-05-05 05:18 | 33.00459 | -97.02530 | 2303 ft | 117 kts | 187° |
| 2026-05-05 05:18 | 32.99645 | -97.02543 | 2140 ft | 116 kts | 185° |
| 2026-05-05 05:18 | 32.98833 | -97.02552 | 1994 ft | 117 kts | 184° |
| 2026-05-05 05:18 | 32.98012 | -97.02559 | 1839 ft | 119 kts | 182° |
| 2026-05-05 05:19 | 32.97185 | -97.02565 | 1692 ft | 118 kts | 181° |
| 2026-05-05 05:19 | 32.96368 | -97.02571 | 1533 ft | 118 kts | 182° |
| 2026-05-05 05:19 | 32.95546 | -97.02578 | 1377 ft | 117 kts | 181° |
| 2026-05-05 05:19 | 32.94711 | -97.02587 | 1243 ft | 119 kts | 180° |
| 2026-05-05 05:20 | 32.93886 | -97.02592 | 1009 ft | 117 kts | 181° |
| 2026-05-05 05:20 | 32.93082 | -97.02582 | 845 ft | 116 kts | 181° |
| 2026-05-05 05:20 | 32.92285 | -97.02587 | 737 ft | 116 kts | 182° |
| 2026-05-05 05:20 | 32.91481 | -97.02596 | 623 ft | 115 kts | 181° |
| 2026-05-05 05:21 | 32.90720 | -97.02604 | 576 ft | 92 kts | 180° |
| 2026-05-05 05:21 | 32.90333 | -97.02606 | 576 ft | 33 kts | 180° |
| 2026-05-05 05:21 | 32.90126 | -97.02609 | 575 ft | 22 kts | 183° |
| 2026-05-05 05:21 | 32.89987 | -97.02646 | 571 ft | 19 kts | 198° |
| 2026-05-05 05:22 | 32.89872 | -97.02719 | 568 ft | 18 kts | 210° |
| 2026-05-05 05:22 | 32.89769 | -97.02788 | 571 ft | 15 kts | 205° |
| 2026-05-05 05:22 | 32.89676 | -97.02803 | 571 ft | 12 kts | 181° |
| 2026-05-05 05:22 | 32.89594 | -97.02803 | 573 ft | 11 kts | 179° |
| 2026-05-05 05:23 | 32.89514 | -97.02803 | 573 ft | 12 kts | 181° |
| 2026-05-05 05:23 | 32.89434 | -97.02804 | 573 ft | 11 kts | 180° |
| 2026-05-05 05:23 | 32.89395 | -97.02856 | 574 ft | 8 kts | 260° |
| 2026-05-05 05:23 | 32.89394 | -97.02922 | 575 ft | 10 kts | 269° |
| 2026-05-05 05:24 | 32.89393 | -97.03036 | 576 ft | 18 kts | 272° |
| 2026-05-05 05:24 | 32.89397 | -97.03167 | 576 ft | 7 kts | 281° |
| 2026-05-05 05:24 | 32.89436 | -97.03194 | 580 ft | 8 kts | 355° |
| 2026-05-05 05:24 | 32.89521 | -97.03195 | 581 ft | 16 kts | 0° |
| 2026-05-05 05:25 | 32.89637 | -97.03194 | 580 ft | 18 kts | 0° |
| 2026-05-05 05:25 | 32.89773 | -97.03193 | 578 ft | 22 kts | 0° |
| 2026-05-05 05:25 | 32.89934 | -97.03192 | 579 ft | 24 kts | 360° |
| 2026-05-05 05:25 | 32.90069 | -97.03192 | 577 ft | 11 kts | 0° |
| 2026-05-05 05:26 | 32.90109 | -97.03233 | 581 ft | 8 kts | 279° |
| 2026-05-05 05:26 | 32.90110 | -97.03283 | 583 ft | 5 kts | 270° |
| 2026-05-05 05:26 | 32.90110 | -97.03334 | 586 ft | 8 kts | 271° |
| 2026-05-05 05:26 | 32.90111 | -97.03432 | 587 ft | 13 kts | 270° |
| 2026-05-05 05:27 | 32.90120 | -97.03521 | 587 ft | 9 kts | 300° |
| 2026-05-05 05:27 | 32.90170 | -97.03536 | 587 ft | 8 kts | 19° |
| 2026-05-05 05:27 | 32.90261 | -97.03502 | 587 ft | 6 kts | 337° |
| 2026-05-05 05:28 | 32.90287 | -97.03544 | 587 ft | 3 kts | 299° |
| 2026-05-05 05:28 | 32.90292 | -97.03557 | 587 ft | 0 kts | 297° |